Time;durP1;ratioP1;P1;durP2;ratioP2;P2;SDS_P1;SDS_P2;PMS_P1;PMS_P2;Temp;Humidity;BMP_temperature;BMP_pressure;BME280_temperature;BME280_humidity;BME280_pressure;Samples;Min_cycle;Max_cycle;Signal;HPM_P1;HPM_P2
2024/02/16 00:00:13;;;;;;;0.80;0.80;;;11.10;99.90;;;;;;6140963;23;20020;-83
2024/02/16 00:02:40;;;;;;;0.30;0.30;;;11.10;99.90;;;;;;6164387;23;20048;-87
2024/02/16 00:05:07;;;;;;;0.30;0.30;;;11.10;99.90;;;;;;6162090;23;20017;-83
2024/02/16 00:07:37;;;;;;;0.45;0.45;;;11.10;99.90;;;;;;6139342;23;20020;-84
2024/02/16 00:10:04;;;;;;;0.30;0.30;;;11.10;99.90;;;;;;6165930;23;20020;-85
2024/02/16 00:12:31;;;;;;;0.60;0.60;;;11.10;99.90;;;;;;6190683;23;20040;-87
2024/02/16 00:14:58;;;;;;;0.50;0.50;;;11.10;99.90;;;;;;6140844;23;20009;-84
2024/02/16 00:17:26;;;;;;;0.28;0.28;;;11.10;99.90;;;;;;6139960;23;20017;-86
2024/02/16 00:19:56;;;;;;;0.50;0.50;;;11.10;99.90;;;;;;6140833;23;20098;-86
2024/02/16 00:22:21;;;;;;;0.30;0.30;;;11.10;99.90;;;;;;6165647;23;20350;-86
2024/02/16 00:24:47;;;;;;;0.40;0.40;;;11.10;99.90;;;;;;6139947;23;20021;-88
2024/02/16 00:27:14;;;;;;;0.65;0.65;;;11.10;99.90;;;;;;6163977;23;20474;-86
2024/02/16 00:29:40;;;;;;;0.40;0.40;;;11.10;99.90;;;;;;6192049;23;20009;-89
2024/02/16 00:32:07;;;;;;;0.47;0.38;;;11.10;99.90;;;;;;6140111;23;20021;-86
2024/02/16 00:34:34;;;;;;;0.30;0.30;;;11.10;99.90;;;;;;6166004;23;20017;-86
2024/02/16 00:37:00;;;;;;;0.30;0.30;;;11.10;99.90;;;;;;6143344;23;20047;-86
2024/02/16 00:39:26;;;;;;;0.70;0.70;;;11.10;99.90;;;;;;6164760;23;20028;-87
2024/02/16 00:41:52;;;;;;;0.50;0.50;;;11.00;99.90;;;;;;6165282;23;20056;-84
2024/02/16 00:44:17;;;;;;;0.52;0.52;;;11.00;99.90;;;;;;6191718;23;20332;-86
2024/02/16 00:46:46;;;;;;;1.50;0.80;;;11.00;99.90;;;;;;6140881;23;20174;-86
2024/02/16 00:49:12;;;;;;;0.93;0.50;;;11.10;99.90;;;;;;6191896;23;20013;-88
2024/02/16 00:51:39;;;;;;;0.35;0.35;;;11.10;99.90;;;;;;6140933;23;20052;-87
2024/02/16 00:54:05;;;;;;;0.63;0.60;;;11.00;99.90;;;;;;6191456;23;20020;-88
2024/02/16 00:56:32;;;;;;;1.52;1.15;;;11.00;99.90;;;;;;6161797;23;20138;-81
2024/02/16 00:58:58;;;;;;;0.28;0.28;;;11.00;99.90;;;;;;6180931;23;20013;-81
2024/02/16 01:01:26;;;;;;;0.40;0.40;;;11.00;99.90;;;;;;6130303;23;20023;-80
2024/02/16 01:03:52;;;;;;;0.63;0.63;;;10.90;99.90;;;;;;6181293;23;20013;-79
2024/02/16 01:06:17;;;;;;;;;;;10.90;99.90;;;;;;6130496;23;20036;-79
2024/02/16 01:08:43;;;;;;;0.30;0.30;;;10.80;99.90;;;;;;6153913;23;19923;-79
2024/02/16 01:11:09;;;;;;;0.40;0.40;;;10.70;99.90;;;;;;6130196;23;20420;-78
2024/02/16 01:13:35;;;;;;;1.08;0.68;;;10.70;99.90;;;;;;6154288;23;20021;-79
2024/02/16 01:16:02;;;;;;;0.40;0.40;;;10.70;99.90;;;;;;6180774;23;20096;-79
2024/02/16 01:18:29;;;;;;;0.88;0.88;;;10.70;99.90;;;;;;6180413;23;20087;-77
2024/02/16 01:20:55;;;;;;;0.30;0.30;;;10.60;99.90;;;;;;6154271;23;20020;-77
2024/02/16 01:23:21;;;;;;;;;;;10.60;99.90;;;;;;6154821;23;20021;-77
2024/02/16 01:25:47;;;;;;;0.40;0.40;;;10.60;99.90;;;;;;6153999;23;19916;-77
2024/02/16 01:28:13;;;;;;;0.30;0.30;;;10.60;99.90;;;;;;6155020;23;20017;-79
2024/02/16 01:30:39;;;;;;;0.38;0.38;;;10.60;99.90;;;;;;6155160;23;20320;-80
2024/02/16 01:33:06;;;;;;;0.50;0.50;;;10.60;99.90;;;;;;6130041;23;20013;-79
2024/02/16 01:35:32;;;;;;;0.50;0.50;;;10.60;99.90;;;;;;6129414;23;20096;-80
2024/02/16 01:37:58;;;;;;;1.10;0.82;;;10.60;99.90;;;;;;6154745;23;20017;-79
2024/02/16 01:40:26;;;;;;;0.40;0.40;;;10.60;99.90;;;;;;6154553;23;20017;-79
2024/02/16 01:42:54;;;;;;;0.40;0.40;;;10.60;99.90;;;;;;6129942;23;20466;-78
2024/02/16 01:45:21;;;;;;;0.55;0.45;;;10.60;99.90;;;;;;6156049;23;20066;-81
2024/02/16 01:47:47;;;;;;;;;;;10.70;99.90;;;;;;6181066;23;20020;-78
2024/02/16 01:50:14;;;;;;;0.20;0.20;;;10.70;99.90;;;;;;6154240;23;19916;-79
2024/02/16 01:52:41;;;;;;;0.93;0.93;;;10.60;99.90;;;;;;6153803;23;20006;-78
2024/02/16 01:55:10;;;;;;;0.30;0.30;;;10.70;99.90;;;;;;6105772;23;20013;-78
2024/02/16 01:57:40;;;;;;;0.40;0.40;;;10.70;99.90;;;;;;6129063;23;20025;-78
2024/02/16 02:00:09;;;;;;;0.20;0.20;;;10.60;99.90;;;;;;6181114;23;20021;-78
2024/02/16 02:02:35;;;;;;;0.20;0.20;;;10.60;99.90;;;;;;6155191;23;20008;-78
2024/02/16 02:05:02;;;;;;;0.22;0.22;;;10.60;99.90;;;;;;6153957;23;20432;-78
2024/02/16 02:07:27;;;;;;;0.47;0.47;;;10.60;99.90;;;;;;6157266;23;20096;-80
2024/02/16 02:09:53;;;;;;;0.25;0.25;;;10.60;99.90;;;;;;6130699;23;20052;-78
2024/02/16 02:12:19;;;;;;;1.02;1.02;;;10.70;99.90;;;;;;6154544;23;20040;-79
2024/02/16 02:14:46;;;;;;;0.30;0.30;;;10.70;99.90;;;;;;6180764;23;20404;-78
2024/02/16 02:17:12;;;;;;;0.30;0.30;;;10.60;99.90;;;;;;6130409;23;20044;-78
2024/02/16 02:19:38;;;;;;;0.75;0.75;;;10.60;99.90;;;;;;6129515;23;20124;-78
2024/02/16 02:22:04;;;;;;;0.40;0.40;;;10.60;99.90;;;;;;6181974;23;20020;-80
2024/02/16 02:24:30;;;;;;;0.50;0.50;;;10.60;99.90;;;;;;6155020;23;20021;-78
2024/02/16 02:26:57;;;;;;;0.50;0.50;;;10.60;99.90;;;;;;6181944;23;20021;-79
2024/02/16 02:29:23;;;;;;;0.38;0.38;;;10.50;99.90;;;;;;6130201;23;20013;-78
2024/02/16 02:31:49;;;;;;;0.30;0.30;;;10.50;99.90;;;;;;6154938;23;20089;-80
2024/02/16 02:34:14;;;;;;;0.45;0.45;;;10.40;99.90;;;;;;6154578;23;20024;-79
2024/02/16 02:36:41;;;;;;;0.25;0.25;;;10.40;99.90;;;;;;6129307;23;20023;-78
2024/02/16 02:39:06;;;;;;;;;;;10.40;99.90;;;;;;6106230;23;20013;-79
2024/02/16 02:41:32;;;;;;;0.30;0.30;;;10.40;99.90;;;;;;6180304;23;19955;-79
2024/02/16 02:43:58;;;;;;;0.30;0.30;;;10.40;99.90;;;;;;6181648;23;20017;-79
2024/02/16 02:46:24;;;;;;;0.45;0.45;;;10.30;99.90;;;;;;6129864;23;20021;-78
2024/02/16 02:48:51;;;;;;;0.30;0.30;;;10.30;99.90;;;;;;6129931;23;20363;-78
2024/02/16 02:51:17;;;;;;;0.50;0.50;;;10.30;99.90;;;;;;6155362;23;20474;-78
2024/02/16 02:53:43;;;;;;;0.50;0.50;;;10.30;99.90;;;;;;6155680;23;20021;-78
2024/02/16 02:56:08;;;;;;;0.40;0.40;;;10.30;99.90;;;;;;6155989;23;20344;-79
2024/02/16 02:58:34;;;;;;;0.88;0.88;;;10.20;99.90;;;;;;6132102;23;20119;-79
2024/02/16 03:01:00;;;;;;;0.40;0.40;;;10.20;99.90;;;;;;6155021;23;20017;-78
2024/02/16 03:03:26;;;;;;;0.30;0.30;;;10.20;99.90;;;;;;6182496;23;20103;-77
2024/02/16 03:05:52;;;;;;;0.40;0.40;;;10.20;99.90;;;;;;6182384;23;20084;-78
2024/02/16 03:08:17;;;;;;;0.30;0.30;;;10.20;99.90;;;;;;6155918;23;20492;-78
2024/02/16 03:10:44;;;;;;;0.70;0.70;;;10.30;99.90;;;;;;6156331;23;20331;-80
2024/02/16 03:13:12;;;;;;;0.40;0.40;;;10.30;99.90;;;;;;6131390;23;20051;-78
2024/02/16 03:15:38;;;;;;;0.40;0.40;;;10.30;99.90;;;;;;6131408;23;20347;-78
2024/02/16 03:18:08;;;;;;;;;;;10.30;99.90;;;;;;6131606;23;20027;-78
2024/02/16 03:20:35;;;;;;;1.40;0.55;;;10.30;99.90;;;;;;6181934;23;20388;-79
2024/02/16 03:23:01;;;;;;;0.65;0.52;;;10.30;99.90;;;;;;6131074;23;20072;-79
2024/02/16 03:25:27;;;;;;;0.30;0.30;;;10.30;99.90;;;;;;6156447;23;20009;-79
2024/02/16 03:27:55;;;;;;;0.30;0.30;;;10.30;99.90;;;;;;6155229;23;20009;-79
2024/02/16 03:30:21;;;;;;;0.60;0.60;;;10.30;99.90;;;;;;6155591;23;20016;-78
2024/02/16 03:32:51;;;;;;;0.30;0.30;;;10.30;99.90;;;;;;6130455;23;20017;-78
2024/02/16 03:35:18;;;;;;;0.52;0.52;;;10.40;99.90;;;;;;6155793;23;20331;-78
2024/02/16 03:37:44;;;;;;;0.40;0.40;;;10.30;99.90;;;;;;6182128;23;20017;-78
2024/02/16 03:40:12;;;;;;;11.30;0.88;;;10.30;99.90;;;;;;6154871;23;20020;-78
2024/02/16 03:42:39;;;;;;;0.30;0.30;;;10.30;99.90;;;;;;6182373;23;20013;-78
2024/02/16 03:45:06;;;;;;;0.40;0.40;;;10.40;99.90;;;;;;6154473;23;20500;-78
2024/02/16 03:47:32;;;;;;;0.38;0.38;;;10.30;99.90;;;;;;6130163;23;20017;-79
2024/02/16 03:49:57;;;;;;;0.30;0.30;;;10.30;99.90;;;;;;6156706;23;20083;-80
2024/02/16 03:52:23;;;;;;;0.40;0.40;;;10.30;99.90;;;;;;6132527;23;20017;-80
2024/02/16 03:54:50;;;;;;;1.05;1.05;;;10.30;99.90;;;;;;6157110;23;20017;-79
2024/02/16 03:57:16;;;;;;;1.48;1.38;;;10.30;99.90;;;;;;6156040;23;20032;-78
2024/02/16 03:59:45;;;;;;;0.35;0.35;;;10.30;99.90;;;;;;6155332;23;20103;-78
2024/02/16 04:02:15;;;;;;;0.40;0.40;;;10.30;99.90;;;;;;6155234;23;20017;-77
2024/02/16 04:04:41;;;;;;;1.27;1.27;;;10.20;99.90;;;;;;6131553;23;20013;-79
2024/02/16 04:07:08;;;;;;;9.13;0.93;;;10.20;99.90;;;;;;6132201;23;20052;-80
2024/02/16 04:09:34;;;;;;;0.60;0.60;;;10.20;99.90;;;;;;6106364;23;20024;-79
2024/02/16 04:12:03;;;;;;;0.73;0.70;;;10.20;99.90;;;;;;6181673;23;20338;-79
2024/02/16 04:14:30;;;;;;;1.23;1.13;;;10.10;99.90;;;;;;6130889;23;20013;-78
2024/02/16 04:16:59;;;;;;;0.30;0.30;;;10.10;99.90;;;;;;6181005;23;20020;-79
2024/02/16 04:19:28;;;;;;;0.47;0.47;;;10.10;99.90;;;;;;6181671;23;20021;-78
2024/02/16 04:21:55;;;;;;;5.18;1.30;;;10.10;99.90;;;;;;6181541;23;20017;-77
2024/02/16 04:24:21;;;;;;;0.38;0.38;;;10.00;99.90;;;;;;6154922;23;20017;-77
2024/02/16 04:26:46;;;;;;;0.63;0.63;;;10.10;99.90;;;;;;6130095;23;20544;-81
2024/02/16 04:29:12;;;;;;;0.40;0.40;;;10.00;99.90;;;;;;6130819;23;20100;-79
2024/02/16 04:31:42;;;;;;;0.60;0.60;;;10.00;99.90;;;;;;6181712;23;20013;-79
2024/02/16 04:34:09;;;;;;;1.27;0.70;;;10.00;99.90;;;;;;6152971;23;20052;-79
2024/02/16 04:36:35;;;;;;;0.57;0.57;;;10.00;99.90;;;;;;6130033;23;20013;-80
2024/02/16 04:39:01;;;;;;;;;;;10.10;99.90;;;;;;6152872;23;20017;-81
2024/02/16 04:41:27;;;;;;;0.50;0.50;;;10.10;99.90;;;;;;6129625;23;19994;-79
2024/02/16 04:43:53;;;;;;;0.38;0.38;;;10.10;99.90;;;;;;6152655;23;20155;-80
2024/02/16 04:46:19;;;;;;;0.32;0.32;;;10.10;99.90;;;;;;6155907;23;20451;-82
2024/02/16 04:48:45;;;;;;;;;;;10.10;99.90;;;;;;6133849;23;20028;-79
2024/02/16 04:51:11;;;;;;;0.50;0.50;;;10.10;99.90;;;;;;6154183;23;19920;-79
2024/02/16 04:53:37;;;;;;;0.93;0.93;;;10.10;99.90;;;;;;6155868;23;20052;-79
2024/02/16 04:56:03;;;;;;;0.77;0.73;;;10.10;99.90;;;;;;6153926;23;20032;-79
2024/02/16 04:58:29;;;;;;;0.50;0.50;;;10.10;99.90;;;;;;6155493;23;20083;-78
2024/02/16 05:00:54;;;;;;;0.40;0.40;;;10.10;99.90;;;;;;6154764;23;20067;-78
2024/02/16 05:03:20;;;;;;;0.30;0.30;;;10.10;99.90;;;;;;6129394;23;20100;-77
2024/02/16 05:05:45;;;;;;;0.25;0.25;;;10.10;99.90;;;;;;6154296;23;20021;-78
2024/02/16 05:08:12;;;;;;;0.30;0.30;;;10.10;99.90;;;;;;6131111;23;20011;-81
2024/02/16 05:10:37;;;;;;;;;;;10.20;99.90;;;;;;6130667;23;20017;-79
2024/02/16 05:13:04;;;;;;;0.52;0.52;;;10.20;99.90;;;;;;6181531;23;20436;-82
2024/02/16 05:15:31;;;;;;;1.30;0.52;;;10.10;99.90;;;;;;6183189;23;20089;-80
2024/02/16 05:17:57;;;;;;;0.30;0.30;;;10.10;99.90;;;;;;6154716;23;20025;-79
2024/02/16 05:20:23;;;;;;;0.55;0.50;;;10.10;99.90;;;;;;6130059;23;20091;-79
2024/02/16 05:22:49;;;;;;;1.02;0.85;;;10.20;99.90;;;;;;6181292;23;20059;-80
2024/02/16 05:25:18;;;;;;;0.40;0.40;;;10.20;99.90;;;;;;6129983;23;20028;-79
2024/02/16 05:27:45;;;;;;;0.40;0.40;;;10.20;99.90;;;;;;6130356;23;20024;-79
2024/02/16 05:30:14;;;;;;;0.25;0.25;;;10.30;99.90;;;;;;6154741;23;20009;-79
2024/02/16 05:32:41;;;;;;;0.40;0.40;;;10.30;99.90;;;;;;6154834;23;20009;-79
2024/02/16 05:35:16;;;;;;;0.40;0.40;;;10.30;99.90;;;;;;6153822;23;20095;-79
2024/02/16 05:37:44;;;;;;;2.15;1.38;;;10.30;99.90;;;;;;6180908;23;20012;-79
2024/02/16 05:40:28;;;;;;;0.43;0.43;;;10.30;99.90;;;;;;6154924;23;20091;-79
2024/02/16 05:42:57;;;;;;;0.32;0.32;;;10.30;99.90;;;;;;6181762;23;20542;-81
2024/02/16 05:45:24;;;;;;;0.28;0.28;;;10.20;99.90;;;;;;6183587;23;20529;-80
2024/02/16 05:47:50;;;;;;;0.35;0.35;;;10.20;99.90;;;;;;6157557;23;20466;-80
2024/02/16 05:50:17;;;;;;;0.40;0.40;;;10.30;99.90;;;;;;6181029;23;20021;-78
2024/02/16 05:52:43;;;;;;;0.50;0.50;;;10.30;99.90;;;;;;6129657;23;20028;-79
2024/02/16 05:55:10;;;;;;;0.30;0.30;;;10.30;99.90;;;;;;6129115;23;20074;-79
2024/02/16 05:57:37;;;;;;;0.22;0.22;;;10.30;99.90;;;;;;6154340;23;20103;-79
2024/02/16 06:00:08;;;;;;;0.32;0.32;;;10.20;99.90;;;;;;6153995;23;20017;-79
2024/02/16 06:02:34;;;;;;;0.30;0.30;;;10.20;99.90;;;;;;6132121;23;20081;-81
2024/02/16 06:05:04;;;;;;;0.40;0.40;;;10.20;99.90;;;;;;6181840;23;20040;-81
2024/02/16 06:07:30;;;;;;;0.30;0.30;;;10.20;99.90;;;;;;6181185;23;20017;-79
2024/02/16 06:09:57;;;;;;;0.50;0.50;;;10.20;99.90;;;;;;6154517;23;20025;-79
2024/02/16 06:12:23;;;;;;;0.30;0.30;;;10.20;99.90;;;;;;6129437;23;20017;-79
2024/02/16 06:14:49;;;;;;;3.42;1.77;;;10.20;99.90;;;;;;6182512;23;20714;-80
2024/02/16 06:17:15;;;;;;;;;;;10.10;99.90;;;;;;6181166;23;20093;-79
2024/02/16 06:19:41;;;;;;;0.40;0.40;;;10.10;99.90;;;;;;6154343;23;19958;-79
2024/02/16 06:22:08;;;;;;;0.35;0.35;;;10.10;99.90;;;;;;6129332;23;20032;-78
2024/02/16 06:24:34;;;;;;;0.40;0.40;;;10.10;99.90;;;;;;6183818;23;20463;-80
2024/02/16 06:27:00;;;;;;;0.50;0.50;;;10.10;99.90;;;;;;6159888;23;20013;-80
2024/02/16 06:29:26;;;;;;;0.30;0.30;;;10.00;99.90;;;;;;6157307;23;20545;-81
2024/02/16 06:31:52;;;;;;;0.40;0.40;;;10.00;99.90;;;;;;6186373;23;20009;-80
2024/02/16 06:34:19;;;;;;;0.30;0.30;;;10.00;99.90;;;;;;6184387;23;20017;-82
2024/02/16 06:36:45;;;;;;;0.60;0.60;;;10.00;99.90;;;;;;6185595;23;20396;-79
2024/02/16 06:39:11;;;;;;;;;;;9.90;99.90;;;;;;6186859;23;20024;-78
2024/02/16 06:41:37;;;;;;;0.43;0.43;;;10.10;99.90;;;;;;6187204;23;19947;-80
2024/02/16 06:44:06;;;;;;;0.47;0.47;;;10.00;99.90;;;;;;6187360;23;20052;-80
2024/02/16 06:46:32;;;;;;;0.40;0.40;;;10.00;99.90;;;;;;6187186;23;20024;-81
2024/02/16 06:48:57;;;;;;;0.40;0.40;;;10.10;99.90;;;;;;6161127;23;20017;-79
2024/02/16 06:51:25;;;;;;;0.65;0.65;;;10.10;99.90;;;;;;6189029;23;20009;-80
2024/02/16 06:53:51;;;;;;;0.40;0.40;;;10.10;99.90;;;;;;6091620;23;20017;-80
2024/02/16 06:56:18;;;;;;;0.63;0.63;;;10.10;99.90;;;;;;6137799;23;20036;-79
2024/02/16 06:58:46;;;;;;;0.30;0.30;;;10.10;99.90;;;;;;6138172;23;20021;-78
2024/02/16 07:01:16;;;;;;;0.40;0.40;;;10.10;99.90;;;;;;6164502;23;20021;-80
2024/02/16 07:03:43;;;;;;;0.30;0.30;;;10.00;99.90;;;;;;6114822;23;20048;-77
2024/02/16 07:06:13;;;;;;;0.75;0.75;;;10.10;99.90;;;;;;6130165;23;20021;-79
2024/02/16 07:08:43;;;;;;;0.73;0.70;;;10.10;99.90;;;;;;6134831;23;20013;-79
2024/02/16 07:11:12;;;;;;;0.50;0.50;;;10.10;99.90;;;;;;6158331;23;20017;-80
2024/02/16 07:13:39;;;;;;;0.38;0.38;;;10.20;99.90;;;;;;6136277;23;20024;-78
2024/02/16 07:16:09;;;;;;;1.17;0.60;;;10.20;99.90;;;;;;6137825;23;20013;-81
2024/02/16 07:18:35;;;;;;;0.73;0.50;;;10.40;99.90;;;;;;6186913;23;20016;-81
2024/02/16 07:21:01;;;;;;;0.85;0.50;;;10.40;99.90;;;;;;6161520;23;20045;-79
2024/02/16 07:23:28;;;;;;;0.35;0.35;;;10.40;99.90;;;;;;6139709;23;20320;-82
2024/02/16 07:25:57;;;;;;;0.30;0.30;;;10.50;99.90;;;;;;6139782;23;20023;-79
2024/02/16 07:28:25;;;;;;;0.28;0.28;;;10.40;99.90;;;;;;6091040;23;20013;-80
2024/02/16 07:30:51;;;;;;;0.95;0.95;;;10.60;99.90;;;;;;6114816;23;20013;-80
2024/02/16 07:33:17;;;;;;;0.40;0.40;;;10.60;99.90;;;;;;6112453;23;20099;-81
2024/02/16 07:35:43;;;;;;;0.30;0.30;;;10.60;99.90;;;;;;6111434;23;20021;-80
2024/02/16 07:38:10;;;;;;;0.40;0.40;;;10.50;99.90;;;;;;6162915;23;20023;-80
2024/02/16 07:40:36;;;;;;;0.35;0.35;;;10.60;99.90;;;;;;6138670;23;20340;-80
2024/02/16 07:43:03;;;;;;;0.50;0.50;;;10.60;99.90;;;;;;6116140;23;20060;-80
2024/02/16 07:45:29;;;;;;;0.40;0.40;;;10.70;99.90;;;;;;6140572;23;20016;-80
2024/02/16 07:47:56;;;;;;;0.30;0.30;;;10.70;99.90;;;;;;6138664;23;20100;-79
2024/02/16 07:50:25;;;;;;;0.60;0.60;;;10.70;99.90;;;;;;6194090;23;20009;-84
2024/02/16 07:52:54;;;;;;;0.30;0.30;;;10.80;99.90;;;;;;6123407;23;20020;-83
2024/02/16 07:55:22;;;;;;;0.40;0.40;;;10.70;99.90;;;;;;6099416;23;20013;-83
2024/02/16 07:57:48;;;;;;;0.63;0.63;;;10.80;99.90;;;;;;6125690;23;20525;-86
2024/02/16 08:00:15;;;;;;;0.93;0.93;;;10.80;99.90;;;;;;6151336;23;20048;-84
2024/02/16 08:02:43;;;;;;;0.60;0.60;;;9.80;99.90;;;;;;6151325;23;20020;-85
2024/02/16 08:05:12;;;;;;;0.45;0.45;;;10.80;99.90;;;;;;6168994;23;20059;-81
2024/02/16 08:07:38;;;;;;;0.95;0.70;;;10.90;99.90;;;;;;6144223;23;20070;-80
2024/02/16 08:10:05;;;;;;;0.80;0.52;;;10.90;99.90;;;;;;6118926;23;20016;-82
2024/02/16 08:12:35;;;;;;;0.50;0.50;;;;;;;;;;6145336;23;20013;-82
2024/02/16 08:15:06;;;;;;;0.68;0.68;;;11.00;99.90;;;;;;6120140;23;20052;-81
2024/02/16 08:17:34;;;;;;;0.50;0.50;;;11.10;99.90;;;;;;6122845;23;20463;-79
2024/02/16 08:20:06;;;;;;;0.40;0.40;;;11.10;99.90;;;;;;6145784;23;20077;-83
2024/02/16 08:22:37;;;;;;;0.32;0.32;;;10.40;99.90;;;;;;6122123;23;20013;-82
2024/02/16 08:25:03;;;;;;;0.47;0.40;;;11.20;99.90;;;;;;6123241;23;20021;-82
2024/02/16 08:27:29;;;;;;;;;;;11.20;99.90;;;;;;6108199;23;20397;-80
2024/02/16 08:29:55;;;;;;;1.02;1.02;;;11.20;99.90;;;;;;6166182;23;19920;-81
2024/02/16 08:32:21;;;;;;;0.40;0.40;;;11.30;99.90;;;;;;6141375;23;20110;-84
2024/02/16 08:34:50;;;;;;;0.88;0.88;;;11.20;99.90;;;;;;6117733;23;20017;-82
2024/02/16 08:37:17;;;;;;;0.50;0.50;;;11.20;99.90;;;;;;6114405;23;20028;-81
2024/02/16 08:39:43;;;;;;;0.68;0.68;;;11.30;99.90;;;;;;6090739;23;20018;-81
2024/02/16 08:42:11;;;;;;;0.40;0.40;;;11.30;99.90;;;;;;6088871;23;20028;-81
2024/02/16 08:44:40;;;;;;;0.55;0.55;;;11.30;99.90;;;;;;6092001;23;20073;-82
2024/02/16 08:47:07;;;;;;;0.52;0.52;;;11.30;99.90;;;;;;6117603;23;20020;-82
2024/02/16 08:49:34;;;;;;;0.30;0.30;;;11.40;99.90;;;;;;6116390;23;20053;-82
2024/02/16 08:52:00;;;;;;;8.50;0.82;;;11.30;99.90;;;;;;6091557;23;20017;-81
2024/02/16 08:54:26;;;;;;;0.43;0.43;;;11.40;99.90;;;;;;6139180;23;20024;-79
2024/02/16 08:56:55;;;;;;;0.63;0.63;;;11.50;99.90;;;;;;6114440;23;20073;-80
2024/02/16 08:59:21;;;;;;;0.98;0.63;;;11.30;99.90;;;;;;6091282;23;20078;-82
2024/02/16 09:01:50;;;;;;;0.47;0.47;;;10.40;99.90;;;;;;6113898;23;20310;-80
2024/02/16 09:04:16;;;;;;;0.30;0.30;;;11.40;99.90;;;;;;6111024;23;20595;-82
2024/02/16 09:06:42;;;;;;;0.50;0.50;;;11.50;99.90;;;;;;6065282;23;20045;-82
2024/02/16 09:09:08;;;;;;;0.30;0.30;;;11.60;99.90;;;;;;6092798;23;20017;-82
2024/02/16 09:11:34;;;;;;;0.45;0.45;;;12.00;99.90;;;;;;6090215;23;20271;-81
2024/02/16 09:14:00;;;;;;;0.47;0.47;;;11.60;99.90;;;;;;6063619;23;20025;-83
2024/02/16 09:16:26;;;;;;;;;;;11.60;99.90;;;;;;6090517;23;20017;-81
2024/02/16 09:18:52;;;;;;;0.85;0.85;;;11.70;99.90;;;;;;6091866;23;20244;-83
2024/02/16 09:21:18;;;;;;;0.82;0.82;;;11.80;99.90;;;;;;6065630;23;20013;-81
2024/02/16 09:23:49;;;;;;;0.40;0.40;;;11.90;99.90;;;;;;6090932;23;20018;-81
2024/02/16 09:26:18;;;;;;;1.90;1.80;;;11.90;99.90;;;;;;6067389;23;20021;-82
2024/02/16 09:28:44;;;;;;;12.82;2.40;;;12.10;99.90;;;;;;6091090;23;20105;-82
2024/02/16 09:31:14;;;;;;;0.60;0.60;;;12.30;99.90;;;;;;6092230;23;20013;-81
2024/02/16 09:33:40;;;;;;;0.40;0.40;;;12.40;99.90;;;;;;6090984;23;20067;-81
2024/02/16 09:36:06;;;;;;;;;;;12.30;99.90;;;;;;6112931;23;20022;-82
2024/02/16 09:38:32;;;;;;;0.40;0.40;;;12.30;99.90;;;;;;6089187;23;19987;-82
2024/02/16 09:40:58;;;;;;;0.40;0.40;;;12.40;99.90;;;;;;6091424;23;20029;-82
2024/02/16 09:43:29;;;;;;;1.63;1.52;;;12.50;99.90;;;;;;6091902;23;20013;-82
2024/02/16 09:46:03;;;;;;;0.43;0.43;;;12.70;99.90;;;;;;6115650;23;20486;-84
2024/02/16 09:48:31;;;;;;;0.30;0.30;;;12.60;99.90;;;;;;6092884;23;20010;-82
2024/02/16 09:50:59;;;;;;;0.70;0.70;;;12.60;99.90;;;;;;6113328;23;20093;-82
2024/02/16 09:53:27;;;;;;;0.40;0.40;;;12.70;99.90;;;;;;6133727;23;20017;-79
2024/02/16 09:55:53;;;;;;;0.50;0.50;;;12.70;99.90;;;;;;6114247;23;20017;-81
2024/02/16 09:58:20;;;;;;;0.88;0.88;;;12.80;99.90;;;;;;6091352;23;20316;-82
2024/02/16 10:00:54;;;;;;;0.50;0.50;;;12.80;99.90;;;;;;6089229;23;20024;-83
2024/02/16 10:03:28;;;;;;;1.25;1.17;;;12.90;99.90;;;;;;6113365;23;20025;-83
2024/02/16 10:06:06;;;;;;;0.43;0.43;;;12.90;99.90;;;;;;6138037;23;20013;-81
2024/02/16 10:08:33;;;;;;;0.70;0.70;;;13.00;99.90;;;;;;6138937;23;20014;-82
2024/02/16 10:11:05;;;;;;;0.40;0.40;;;13.10;99.90;;;;;;6083672;23;20064;-80
2024/02/16 10:13:32;;;;;;;0.65;0.65;;;13.20;99.90;;;;;;6091408;23;20060;-81
2024/02/16 10:16:11;;;;;;;0.40;0.40;;;13.20;99.90;;;;;;6091491;23;20181;-82
2024/02/16 10:18:40;;;;;;;2.50;1.38;;;13.20;99.90;;;;;;6115103;23;20017;-81
2024/02/16 10:21:09;;;;;;;0.45;0.45;;;13.20;99.90;;;;;;6093220;23;20018;-81
2024/02/16 10:23:35;;;;;;;0.70;0.70;;;13.40;99.90;;;;;;6090407;23;20114;-81
2024/02/16 10:26:02;;;;;;;1.63;1.58;;;13.40;99.90;;;;;;6067202;23;20025;-84
2024/02/16 10:28:30;;;;;;;0.88;0.88;;;13.50;99.90;;;;;;6093013;23;20018;-82
2024/02/16 10:31:05;;;;;;;1.02;0.80;;;13.40;99.90;;;;;;6116686;23;20048;-81
2024/02/16 10:33:32;;;;;;;3.20;1.15;;;13.30;99.90;;;;;;6120223;23;20075;-81
2024/02/16 10:36:02;;;;;;;0.90;0.90;;;11.90;99.90;;;;;;6118656;23;20013;-82
2024/02/16 10:38:30;;;;;;;0.65;0.65;;;13.20;99.90;;;;;;6120437;23;20017;-81
2024/02/16 10:40:57;;;;;;;0.60;0.60;;;13.20;99.90;;;;;;6069433;23;20064;-84
2024/02/16 10:43:25;;;;;;;2.38;0.88;;;13.20;99.90;;;;;;6092321;23;20013;-84
2024/02/16 10:45:52;;;;;;;0.30;0.30;;;13.20;99.90;;;;;;6091885;23;20018;-83
2024/02/16 10:48:19;;;;;;;1.80;1.65;;;13.10;99.90;;;;;;6114658;23;20016;-86
2024/02/16 10:50:45;;;;;;;0.55;0.55;;;13.20;99.90;;;;;;6066861;23;20013;-84
2024/02/16 10:53:18;;;;;;;;;;;13.10;99.90;;;;;;6142168;23;20020;-85
2024/02/16 10:55:44;;;;;;;0.50;0.50;;;13.10;99.90;;;;;;6113719;23;19916;-86
2024/02/16 10:58:17;;;;;;;0.80;0.80;;;13.10;99.90;;;;;;6144063;23;20028;-84
2024/02/16 11:00:49;;;;;;;0.60;0.60;;;13.20;99.90;;;;;;6116346;23;20028;-81
2024/02/16 11:03:18;;;;;;;0.40;0.40;;;12.90;99.90;;;;;;6114371;23;20352;-82
2024/02/16 11:05:46;;;;;;;1.77;1.55;;;12.80;99.90;;;;;;6112721;23;20530;-81
2024/02/16 11:08:16;;;;;;;2.75;1.35;;;12.60;99.90;;;;;;6114135;23;20017;-83
2024/02/16 11:11:03;;;;;;;0.77;0.77;;;12.40;99.90;;;;;;6112853;23;20024;-83
2024/02/16 11:13:33;;;;;;;1.15;1.10;;;12.50;99.90;;;;;;6088324;23;20025;-84
2024/02/16 11:16:08;;;;;;;0.88;0.88;;;12.30;99.90;;;;;;6111317;23;20032;-84
2024/02/16 11:18:46;;;;;;;4.97;1.45;;;12.20;99.90;;;;;;6089916;23;20017;-82
2024/02/16 11:21:16;;;;;;;1.20;1.13;;;12.10;99.90;;;;;;6111147;23;20017;-82
2024/02/16 11:23:43;;;;;;;0.80;0.80;;;12.20;99.90;;;;;;6112446;23;20044;-81
2024/02/16 11:26:17;;;;;;;0.52;0.52;;;12.00;99.90;;;;;;6115338;23;20246;-84
2024/02/16 11:28:44;;;;;;;1.77;1.67;;;;;;;;;;6114542;23;20447;-82
2024/02/16 11:31:11;;;;;;;0.85;0.85;;;11.70;99.90;;;;;;6113204;23;20073;-82
2024/02/16 11:33:42;;;;;;;1.10;1.10;;;11.60;99.90;;;;;;6114574;23;20020;-86
2024/02/16 11:36:09;;;;;;;1.95;1.75;;;11.50;99.90;;;;;;6114730;23;20032;-83
2024/02/16 11:38:35;;;;;;;0.70;0.45;;;11.30;99.90;;;;;;6113256;23;20021;-82
2024/02/16 11:41:04;;;;;;;0.73;0.73;;;11.10;99.90;;;;;;6108915;23;20017;-81
2024/02/16 11:43:32;;;;;;;1.23;1.13;;;11.10;99.90;;;;;;6106919;23;20640;-80
2024/02/16 11:45:58;;;;;;;1.42;1.33;;;11.00;99.90;;;;;;6083006;23;20044;-81
2024/02/16 11:48:25;;;;;;;;;;;10.90;99.90;;;;;;6109687;23;20020;-80
2024/02/16 11:51:01;;;;;;;2.25;2.15;;;10.50;99.90;;;;;;6108171;23;19939;-81
2024/02/16 11:53:32;;;;;;;0.50;0.50;;;10.80;99.90;;;;;;6110970;23;20023;-80
2024/02/16 11:55:59;;;;;;;0.70;0.70;;;10.80;99.90;;;;;;6086106;23;20025;-78
2024/02/16 11:58:26;;;;;;;0.68;0.68;;;10.70;99.90;;;;;;6084074;23;20013;-81
2024/02/16 12:00:52;;;;;;;0.80;0.80;;;10.80;99.90;;;;;;6107456;23;20018;-80
2024/02/16 12:03:26;;;;;;;0.40;0.40;;;10.70;99.90;;;;;;6078824;23;20029;-79
2024/02/16 12:05:57;;;;;;;4.40;1.33;;;10.70;99.90;;;;;;6099527;23;20014;-80
2024/02/16 12:08:24;;;;;;;1.92;1.83;;;10.70;99.90;;;;;;6103353;23;20513;-80
2024/02/16 12:10:51;;;;;;;1.17;1.17;;;10.70;99.90;;;;;;6102434;23;20013;-79
2024/02/16 12:13:18;;;;;;;0.98;0.98;;;10.70;99.90;;;;;;6078131;23;20021;-78
2024/02/16 12:15:48;;;;;;;1.55;1.42;;;10.60;99.90;;;;;;6101761;23;20108;-78
2024/02/16 12:18:25;;;;;;;1.15;1.15;;;10.60;99.90;;;;;;6054019;23;20264;-79
2024/02/16 12:21:00;;;;;;;;;;;10.60;99.90;;;;;;6100094;23;20101;-79
2024/02/16 12:23:26;;;;;;;0.73;0.73;;;10.60;99.90;;;;;;6152452;23;19921;-78
2024/02/16 12:25:53;;;;;;;1.77;0.93;;;10.70;99.90;;;;;;6076766;23;20518;-76
2024/02/16 12:28:21;;;;;;;0.63;0.63;;;10.70;99.90;;;;;;6151115;23;20068;-78
2024/02/16 12:30:48;;;;;;;3.83;3.53;;;10.60;99.90;;;;;;6153018;23;20024;-79
2024/02/16 12:33:14;;;;;;;1.10;0.57;;;10.60;99.90;;;;;;6151751;23;20470;-78
2024/02/16 12:35:40;;;;;;;0.75;0.75;;;10.60;99.90;;;;;;6124128;23;20020;-78
2024/02/16 12:38:06;;;;;;;0.38;0.38;;;10.60;99.90;;;;;;6077548;23;20013;-78
2024/02/16 12:40:32;;;;;;;0.60;0.60;;;10.60;99.90;;;;;;6126502;23;20014;-79
2024/02/16 12:42:57;;;;;;;0.47;0.47;;;10.70;99.90;;;;;;6100945;23;20168;-77
2024/02/16 12:45:23;;;;;;;1.63;1.42;;;10.70;99.90;;;;;;6151917;23;20017;-78
2024/02/16 12:47:50;;;;;;;0.65;0.65;;;10.70;99.90;;;;;;6152950;23;20392;-78
2024/02/16 12:50:17;;;;;;;1.20;0.98;;;10.60;99.90;;;;;;6099744;23;20017;-78